Weather History for Willmar, MN

Change the Weather History Date:

Monday, February 18, 2013

  Actual Average (KLJF) Record (KLJF)
Temperature  
Mean Temperature 20 °F -  
Max Temperature 37 °F 29 °F 56 °F (1954)
Min Temperature 3 °F 13 °F -18 °F (2006)
Degree Days  
Heating Degree Days 45    
Moisture  
Dew Point 9 °F    
Average Humidity 64    
Maximum Humidity 75    
Minimum Humidity 56    
Precipitation  
Precipitation 0.00 in - - ()
Sea Level Pressure  
Sea Level Pressure 29.69 in    
Wind  
Wind Speed 18 mph (WNW)    
Max Wind Speed 37 mph    
Max Gust Speed 46 mph    
Visibility 4 miles    
Events Snow    
Averages and records for this station are not official NWS values.
T = Trace of Precipitation, MM = Missing Value Source: NWS Daily Summary

Daily Weather History Graph

Daily Weather History Graph

Search for Another Location

Airport:

Trip Planner

Search our weather history database for the weather conditions in past years. The results will help you decide how hot, cold, wet, or windy it might be!

Date:

Astronomy

Feb. 18, 2013 Rise Set
Actual Time 7:16 AM CST 5:53 PM CST
Civil Twilight 6:46 AM CST 6:23 PM CST
Nautical Twilight 6:12 AM CST 6:57 PM CST
Astronomical Twilight 5:38 AM CST 7:31 PM CST
Moon 11:31 AM CST (2/18) 2:04 AM CST (2/18)
Length of Visible Light 11h 36m
Length of Day
10h 36m
First Quarter, 58% of the Moon is Illuminated
Feb 18
First Quarter
Feb 25
Full
Mar 4
Last Quarter
Mar 11
New
Mar 19
First Quarter

Hourly Weather History & Observations

Time (CST) Temp. Windchill Dew Point Humidity Pressure Visibility Wind Dir Wind Speed Gust Speed Precip Events Conditions
12:16 AM 32.0 °F 23.0 °F 21.2 °F 64% 29.52 in 10.0 mi SE 11.5 mph - N/A   Clear
12:35 AM 32.0 °F 24.2 °F 21.2 °F 64% 29.52 in 10.0 mi SE 9.2 mph - N/A   Clear
12:55 AM 32.0 °F 24.8 °F 21.2 °F 64% 29.51 in 10.0 mi SE 8.1 mph - N/A   Clear
1:16 AM 30.2 °F 23.4 °F 19.4 °F 64% 29.51 in 10.0 mi SE 6.9 mph - N/A   Clear
1:35 AM 28.4 °F 22.2 °F 19.4 °F 69% 29.50 in 10.0 mi SE 5.8 mph - N/A   Clear
1:55 AM 28.4 °F 24.6 °F 21.2 °F 74% 29.50 in 10.0 mi SE 3.5 mph - N/A   Clear
2:16 AM 28.4 °F 24.6 °F 21.2 °F 74% 29.51 in 10.0 mi South 3.5 mph - N/A   Clear
2:35 AM 26.6 °F 21.2 °F 19.4 °F 74% 29.51 in 7.0 mi SW 4.6 mph - N/A   Clear
2:55 AM 30.2 °F 25.4 °F 21.2 °F 69% 29.51 in 7.0 mi West 4.6 mph - N/A   Clear
3:15 AM 28.4 °F 22.2 °F 21.2 °F 74% 29.52 in 5.0 mi WSW 5.8 mph - N/A   Haze
3:35 AM 26.6 °F 18.2 °F 19.4 °F 74% 29.53 in 4.0 mi WSW 8.1 mph - N/A   Haze
3:55 AM 26.6 °F 18.2 °F 19.4 °F 74% 29.53 in 4.0 mi West 8.1 mph - N/A   Haze
4:15 AM 28.4 °F 19.1 °F 21.2 °F 74% 29.54 in 4.0 mi West 10.4 mph - N/A   Haze
4:35 AM 30.2 °F 20.8 °F 23.0 °F 75% 29.53 in 7.0 mi West 11.5 mph - N/A   Mostly Cloudy
4:55 AM 33.8 °F 24.3 °F 24.8 °F 70% 29.53 in 10.0 mi West 13.8 mph - N/A   Overcast
5:15 AM 32.0 °F 23.0 °F 24.8 °F 75% 29.52 in 7.0 mi WNW 11.5 mph - N/A   Overcast
5:35 AM 33.8 °F 25.8 °F 24.8 °F 70% 29.52 in 10.0 mi WNW 10.4 mph - N/A   Overcast
5:55 AM 33.8 °F 25.8 °F 26.6 °F 75% 29.51 in 10.0 mi WNW 10.4 mph - N/A   Overcast
6:15 AM 35.6 °F 27.1 °F 26.6 °F 70% 29.51 in 10.0 mi West 12.7 mph - N/A   Overcast
6:35 AM 35.6 °F 26.2 °F 28.4 °F 75% 29.52 in 10.0 mi West 15.0 mph - N/A   Overcast
6:55 AM 37.4 °F 29.8 °F 28.4 °F 70% 29.52 in 7.0 mi WNW 11.5 mph - N/A   Overcast
7:15 AM 37.4 °F 26.9 °F 28.4 °F 70% 29.53 in 5.0 mi WNW 20.7 mph 28.8 mph N/A   Haze
7:35 AM 33.8 °F 20.5 °F 24.8 °F 70% 29.54 in 1.5 mi WNW 27.6 mph 38.0 mph N/A   Haze
8:15 AM 30.2 °F 16.2 °F 21.2 °F 69% 29.58 in 4.0 mi NW 25.3 mph 35.7 mph N/A   Haze
8:35 AM 28.4 °F 13.5 °F 21.2 °F 74% 29.59 in 2.0 mi WNW 26.5 mph 33.4 mph N/A   Haze
8:55 AM 28.4 °F 14.4 °F 19.4 °F 69% 29.60 in 4.0 mi NW 23.0 mph 35.7 mph N/A   Haze
9:15 AM 26.6 °F 11.1 °F 17.6 °F 69% 29.62 in 3.0 mi NW 26.5 mph 39.1 mph N/A   Haze
9:35 AM 26.6 °F 10.8 °F 15.8 °F 64% 29.63 in 3.0 mi NW 27.6 mph 36.8 mph N/A   Haze
9:55 AM 24.8 °F 8.1 °F 14.0 °F 64% 29.64 in 3.0 mi NW 28.8 mph 38.0 mph N/A   Haze
10:15 AM 24.8 °F 7.3 °F 14.0 °F 64% 29.65 in 3.0 mi WNW 32.2 mph 36.8 mph N/A   Haze
10:35 AM 23.0 °F 5.4 °F 12.2 °F 63% 29.66 in 2.0 mi NW 29.9 mph 38.0 mph N/A   Haze
10:55 AM 21.2 °F 2.4 °F 8.6 °F 58% 29.67 in 1.5 mi NW 32.2 mph 38.0 mph N/A Snow Light Snow
11:15 AM 19.4 °F -0.0 °F 8.6 °F 63% 29.68 in 1.0 mi NW 32.2 mph 41.4 mph N/A Snow Light Snow
11:35 AM 19.4 °F 2.5 °F 8.6 °F 63% 29.70 in 2.5 mi WNW 23.0 mph 34.5 mph N/A Snow Light Snow
11:55 AM 17.6 °F -1.3 °F 6.8 °F 63% 29.70 in 0.8 mi WNW 27.6 mph 40.3 mph N/A Snow Light Snow
12:15 PM 17.6 °F -2.2 °F 6.8 °F 63% 29.71 in 1.5 mi NW 31.1 mph 41.4 mph N/A Snow Light Snow
12:35 PM 17.6 °F -2.8 °F 6.8 °F 63% 29.71 in 1.8 mi NW 33.4 mph 41.4 mph N/A   Haze
12:55 PM 17.6 °F -3.6 °F 5.0 °F 58% 29.71 in 1.2 mi NW 36.8 mph 42.6 mph N/A   Haze
1:15 PM 17.6 °F -2.5 °F 5.0 °F 58% 29.70 in 1.2 mi NW 32.2 mph 41.4 mph N/A Snow Light Snow
1:35 PM 15.8 °F -5.5 °F 5.0 °F 62% 29.72 in 1.0 mi NW 34.5 mph 40.3 mph N/A Snow Light Snow
1:55 PM 15.8 °F -3.1 °F 3.2 °F 58% 29.72 in 1.2 mi WNW 25.3 mph 41.4 mph N/A   Haze
2:15 PM 15.8 °F -5.8 °F 3.2 °F 58% 29.73 in 1.0 mi NW 35.7 mph 42.6 mph N/A   Haze
2:35 PM 15.8 °F -5.5 °F 3.2 °F 58% 29.74 in 0.5 mi NW 34.5 mph 41.4 mph N/A Snow Light Snow
2:55 PM 14.0 °F -8.5 °F 1.4 °F 57% 29.75 in 1.0 mi NW 36.8 mph 46.0 mph N/A   Haze
3:15 PM 14.0 °F -8.0 °F 1.4 °F 57% 29.76 in 0.8 mi NW 34.5 mph 43.7 mph N/A Snow Light Snow
3:35 PM 12.2 °F -8.9 °F 1.4 °F 62% 29.77 in 1.0 mi NW 28.8 mph 42.6 mph N/A   Haze
3:55 PM 12.2 °F -10.2 °F -0.4 °F 57% 29.78 in 0.8 mi NW 33.4 mph 40.3 mph N/A Snow Light Snow
4:15 PM 10.4 °F -12.0 °F -0.4 °F 62% 29.79 in 0.8 mi NW 31.1 mph 41.4 mph N/A   Haze
4:35 PM 10.4 °F -12.0 °F -2.2 °F 57% 29.80 in 2.0 mi NW 31.1 mph 42.6 mph N/A   Haze
4:55 PM 10.4 °F -12.0 °F -2.2 °F 57% 29.80 in 3.0 mi NW 31.1 mph 42.6 mph N/A   Haze
5:15 PM 8.6 °F -14.5 °F -2.2 °F 62% 29.81 in 1.5 mi NW 31.1 mph 38.0 mph N/A   Haze
5:35 PM 8.6 °F -15.1 °F -2.2 °F 62% 29.82 in 1.0 mi NW 33.4 mph 41.4 mph N/A   Haze
5:55 PM 8.6 °F -13.4 °F -4.0 °F 57% 29.84 in 1.2 mi NW 27.6 mph 36.8 mph N/A   Haze
6:15 PM 8.6 °F -14.8 °F -4.0 °F 57% 29.85 in 1.2 mi NW 32.2 mph 39.1 mph N/A Snow Light Snow
6:35 PM 8.6 °F -12.7 °F -2.2 °F 62% 29.85 in 0.5 mi NW 25.3 mph 36.8 mph N/A Snow Snow
6:55 PM 6.8 °F -14.3 °F -2.2 °F 67% 29.86 in 0.2 mi NW 23.0 mph 38.0 mph N/A Snow Heavy Snow
7:15 PM 6.8 °F -15.5 °F -2.2 °F 67% 29.86 in 0.5 mi NW 26.5 mph 34.5 mph N/A Snow Snow
7:35 PM 6.8 °F -15.9 °F -4.0 °F 61% 29.86 in 0.5 mi NW 27.6 mph 35.7 mph N/A Snow Heavy Snow
7:55 PM 6.8 °F -15.5 °F -4.0 °F 61% 29.86 in 0.5 mi NW 26.5 mph 36.8 mph N/A Snow Snow
8:15 PM 6.8 °F -17.3 °F -5.8 °F 56% 29.87 in 0.5 mi NW 32.2 mph 38.0 mph N/A Snow Snow
8:35 PM 6.8 °F -16.6 °F -5.8 °F 56% 29.87 in 0.5 mi NW 29.9 mph 39.1 mph N/A Snow Snow
8:55 PM 5.0 °F -18.7 °F -5.8 °F 61% 29.88 in 0.5 mi NW 28.8 mph 39.1 mph N/A Snow Snow
9:15 PM 5.0 °F -19.0 °F -5.8 °F 61% 29.88 in 0.8 mi NW 29.9 mph 35.7 mph N/A Snow Snow
9:35 PM 5.0 °F -18.7 °F -5.8 °F 61% 29.89 in 0.5 mi NW 28.8 mph 36.8 mph N/A Snow Snow
9:55 PM 3.2 °F -20.3 °F -7.6 °F 61% 29.90 in 0.8 mi NW 26.5 mph 36.8 mph N/A Snow Snow
10:15 PM 3.2 °F -21.8 °F -7.6 °F 61% 29.90 in 0.8 mi NW 31.1 mph 36.8 mph N/A Snow Snow
10:35 PM 3.2 °F -20.7 °F -7.6 °F 61% 29.91 in 1.0 mi NW 27.6 mph 33.4 mph N/A Snow Light Snow
10:55 PM 3.2 °F -19.5 °F -7.6 °F 61% 29.92 in 1.5 mi NW 24.2 mph 34.5 mph N/A Snow Light Snow
11:15 PM 3.2 °F -19.9 °F -7.6 °F 61% 29.92 in 1.5 mi NW 25.3 mph 33.4 mph N/A   Haze
11:35 PM 3.2 °F -19.9 °F -9.4 °F 56% 29.93 in 2.0 mi NW 25.3 mph 34.5 mph N/A Snow Light Snow
11:55 PM 3.2 °F -19.5 °F -9.4 °F 56% 29.94 in 1.8 mi NW 24.2 mph 34.5 mph N/A Snow Light Snow